Time;durP1;ratioP1;P1;durP2;ratioP2;P2;SDS_P1;SDS_P2;PMS_P1;PMS_P2;Temp;Humidity;BMP_temperature;BMP_pressure;BME280_temperature;BME280_humidity;BME280_pressure;Samples;Min_cycle;Max_cycle;Signal;HPM_P1;HPM_P2
2022/05/04 00:00:06;;;;;;;1.77;0.75;;;26.20;94.60;;;;;;5095370;28;20025;-72
2022/05/04 00:02:34;;;;;;;1.63;1.33;;;26.50;94.50;;;;;;5081565;28;20036;-73
2022/05/04 00:05:01;;;;;;;2.55;0.85;;;26.60;93.80;;;;;;5079139;28;20050;-73
2022/05/04 00:07:29;;;;;;;3.47;0.93;;;26.70;94.50;;;;;;5069235;28;20028;-73
2022/05/04 00:09:57;;;;;;;2.88;0.88;;;27.20;93.90;;;;;;5073360;28;20156;-74
2022/05/04 00:12:25;;;;;;;2.08;0.43;;;27.30;93.00;;;;;;5072200;28;20052;-74
2022/05/04 00:14:53;;;;;;;1.33;0.75;;;27.00;93.60;;;;;;5075896;28;20016;-74
2022/05/04 00:17:21;;;;;;;1.65;0.70;;;27.30;94.10;;;;;;5091428;28;20119;-74
2022/05/04 00:19:48;;;;;;;3.70;1.17;;;27.60;92.40;;;;;;5093106;28;20028;-75
2022/05/04 00:22:19;;;;;;;1.55;0.63;;;27.50;92.80;;;;;;5088999;28;20390;-74
2022/05/04 00:24:47;;;;;;;2.67;0.60;;;27.30;93.20;;;;;;5072960;28;20057;-75
2022/05/04 00:27:15;;;;;;;1.63;0.60;;;27.20;94.10;;;;;;5080871;28;20081;-72
2022/05/04 00:29:46;;;;;;;0.88;0.60;;;27.40;93.20;;;;;;5078649;28;20024;-75
2022/05/04 00:32:17;;;;;;;1.33;0.50;;;27.50;92.60;;;;;;5071502;28;20617;-75
2022/05/04 00:34:44;;;;;;;2.22;0.68;;;27.40;93.20;;;;;;5070172;28;20043;-75
2022/05/04 00:37:12;;;;;;;2.95;0.60;;;27.80;92.40;;;;;;5080039;28;20069;-72
2022/05/04 00:39:39;;;;;;;1.20;0.55;;;28.10;92.90;;;;;;5077244;28;20035;-73
2022/05/04 00:42:11;;;;;;;1.35;0.50;;;28.70;92.10;;;;;;5072109;28;20055;-73
2022/05/04 00:44:39;;;;;;;3.38;0.60;;;29.10;91.10;;;;;;5077100;28;20607;-73
2022/05/04 00:47:06;;;;;;;1.48;1.02;;;29.40;90.70;;;;;;5094720;28;20032;-72
2022/05/04 00:49:35;;;;;;;0.70;0.40;;;29.40;91.10;;;;;;5073183;28;20695;-72
2022/05/04 00:52:05;;;;;;;1.27;0.40;;;29.30;90.30;;;;;;5073113;28;20016;-73
2022/05/04 00:54:37;;;;;;;1.23;0.38;;;28.50;91.00;;;;;;5075244;28;20044;-73
2022/05/04 00:57:06;;;;;;;2.05;0.95;;;28.70;91.30;;;;;;5074702;28;20028;-74
2022/05/04 00:59:34;;;;;;;3.30;0.40;;;29.20;91.30;;;;;;5088300;28;20360;-72
2022/05/04 01:02:02;;;;;;;2.97;0.68;;;29.20;91.20;;;;;;5067927;28;20363;-74
2022/05/04 01:04:32;;;;;;;2.75;0.65;;;29.20;90.40;;;;;;5088634;28;20040;-74
2022/05/04 01:07:00;;;;;;;1.05;0.45;;;29.00;90.50;;;;;;5085266;28;20024;-74
2022/05/04 01:09:28;;;;;;;6.22;0.85;;;29.20;89.60;;;;;;5087560;28;20091;-74
2022/05/04 01:11:56;;;;;;;1.13;0.45;;;29.00;89.30;;;;;;5070923;28;20063;-76
2022/05/04 01:14:23;;;;;;;1.15;0.47;;;29.10;90.00;;;;;;5092269;28;20442;-74
2022/05/04 01:16:51;;;;;;;2.92;0.52;;;29.40;89.60;;;;;;5088237;28;20377;-75
2022/05/04 01:19:19;;;;;;;2.50;0.50;;;29.80;88.30;;;;;;5090221;28;20030;-73
2022/05/04 01:21:50;;;;;;;2.25;0.60;;;29.70;89.80;;;;;;5085416;28;20456;-73
2022/05/04 01:24:17;;;;;;;2.80;0.50;;;29.70;88.60;;;;;;5087727;28;20055;-73
2022/05/04 01:26:45;;;;;;;1.45;0.50;;;29.80;88.30;;;;;;5102326;28;20019;-74
2022/05/04 01:29:14;;;;;;;2.33;0.38;;;29.50;89.50;;;;;;5079273;28;20024;-74
2022/05/04 01:31:43;;;;;;;3.13;0.57;;;29.70;88.40;;;;;;5079114;28;20035;-75
2022/05/04 01:34:10;;;;;;;1.30;0.40;;;30.20;88.30;;;;;;5079977;28;20032;-74
2022/05/04 01:36:37;;;;;;;2.88;0.43;;;30.20;88.70;;;;;;5074349;28;20467;-75
2022/05/04 01:39:05;;;;;;;10.95;0.50;;;30.20;88.00;;;;;;5088233;28;20040;-75
2022/05/04 01:44:17;;;;;;;0.65;0.35;;;30.40;89.30;;;;;;5082124;28;20055;-75
2022/05/04 01:46:45;;;;;;;1.85;0.57;;;30.40;87.70;;;;;;5074319;28;20046;-75
2022/05/04 01:49:12;;;;;;;0.95;0.50;;;30.50;87.20;;;;;;5077828;28;20056;-75
2022/05/04 01:51:40;;;;;;;1.13;0.40;;;30.60;87.30;;;;;;5090020;28;20021;-74
2022/05/04 01:54:07;;;;;;;1.35;0.50;;;30.70;86.60;;;;;;5077797;28;20059;-72
2022/05/04 01:56:35;;;;;;;1.48;0.35;;;30.40;87.30;;;;;;5080970;28;20051;-74
2022/05/04 01:59:02;;;;;;;1.52;0.50;;;30.10;87.50;;;;;;5088626;28;20043;-74
2022/05/04 02:01:30;;;;;;;1.92;0.40;;;30.10;87.30;;;;;;5084521;28;20475;-73
2022/05/04 02:03:59;;;;;;;3.25;0.60;;;30.40;87.50;;;;;;5088463;28;20493;-72
2022/05/04 02:06:27;;;;;;;2.70;0.40;;;30.40;86.80;;;;;;5071227;28;20348;-73
2022/05/04 02:08:57;;;;;;;1.15;0.40;;;30.30;87.00;;;;;;5071594;28;20028;-71
2022/05/04 02:11:25;;;;;;;0.50;0.30;;;30.10;87.70;;;;;;5074797;28;20054;-73
2022/05/04 02:13:52;;;;;;;2.17;0.50;;;29.90;87.20;;;;;;5094678;28;20031;-73
2022/05/04 02:16:20;;;;;;;2.65;0.40;;;29.70;87.50;;;;;;5075696;28;20123;-73
2022/05/04 02:18:47;;;;;;;0.82;0.47;;;29.60;88.80;;;;;;5084282;28;20032;-74
2022/05/04 02:21:15;;;;;;;3.28;0.47;;;29.80;88.80;;;;;;5084597;28;20029;-74
2022/05/04 02:23:42;;;;;;;1.38;0.60;;;30.00;87.60;;;;;;5094575;28;20130;-73
2022/05/04 02:26:10;;;;;;;1.20;0.45;;;29.90;88.60;;;;;;5090642;28;20028;-73
2022/05/04 02:28:37;;;;;;;1.10;0.40;;;29.40;88.00;;;;;;5086651;28;20089;-72
2022/05/04 02:31:05;;;;;;;1.45;0.40;;;29.30;87.90;;;;;;5088993;28;20039;-73
2022/05/04 02:33:32;;;;;;;0.85;0.20;;;29.20;86.10;;;;;;5081729;28;20043;-72
2022/05/04 02:38:45;;;;;;;0.68;0.30;;;29.50;87.70;;;;;;5084249;28;20039;-73
2022/05/04 02:41:13;;;;;;;1.00;0.30;;;29.70;86.90;;;;;;5086924;28;20116;-71
2022/05/04 02:43:40;;;;;;;0.63;0.20;;;29.60;84.60;;;;;;5076448;28;20071;-74
2022/05/04 02:46:33;;;;;;;1.92;0.28;;;29.70;87.20;;;;;;5082595;28;20026;-72
2022/05/04 02:49:01;;;;;;;0.43;0.20;;;29.60;86.10;;;;;;5080493;28;20040;-72
2022/05/04 02:51:29;;;;;;;1.05;0.30;;;29.40;87.20;;;;;;5085241;28;20036;-72
2022/05/04 02:53:56;;;;;;;1.55;0.30;;;29.70;86.70;;;;;;5076643;28;20035;-71
2022/05/04 02:56:23;;;;;;;0.85;0.20;;;29.90;85.80;;;;;;5071251;28;20024;-71
2022/05/04 02:58:53;;;;;;;0.45;0.35;;;29.80;83.50;;;;;;5073621;28;20027;-71
2022/05/04 03:04:07;;;;;;;0.35;0.20;;;29.90;85.60;;;;;;5074589;28;20043;-70
2022/05/04 03:06:36;;;;;;;2.40;0.50;;;29.90;85.40;;;;;;5068930;28;20027;-71
2022/05/04 03:09:04;;;;;;;0.80;0.38;;;29.70;85.40;;;;;;5069492;28;20497;-72
2022/05/04 03:14:20;;;;;;;1.23;0.30;;;29.80;84.70;;;;;;5081397;28;20553;-71
2022/05/04 03:16:52;;;;;;;0.77;0.32;;;29.80;86.90;;;;;;5078656;28;20036;-72
2022/05/04 03:19:20;;;;;;;0.70;0.20;;;30.00;85.40;;;;;;5073534;28;20028;-74
2022/05/04 03:21:48;;;;;;;1.83;0.30;;;30.00;84.70;;;;;;5071635;28;20423;-72
2022/05/04 03:24:16;;;;;;;1.38;0.55;;;29.50;85.00;;;;;;5085629;28;20032;-71
2022/05/04 03:26:44;;;;;;;3.00;0.40;;;29.50;86.50;;;;;;5104222;28;20028;-72
2022/05/04 03:29:12;;;;;;;1.80;0.30;;;29.60;89.30;;;;;;5084731;28;20332;-71
2022/05/04 03:31:39;;;;;;;2.72;0.70;;;29.50;86.10;;;;;;5087518;28;20016;-71
2022/05/04 03:34:07;;;;;;;0.70;0.40;;;29.20;86.30;;;;;;5086416;28;20375;-71
2022/05/04 03:36:37;;;;;;;1.75;0.32;;;29.20;87.90;;;;;;5087968;28;20382;-72
2022/05/04 03:39:06;;;;;;;1.00;0.43;;;28.90;87.20;;;;;;5081947;28;20057;-71
2022/05/04 03:41:33;;;;;;;0.73;0.30;;;28.40;88.20;;;;;;5083847;28;20036;-73
2022/05/04 03:44:02;;;;;;;0.75;0.30;;;28.10;89.80;;;;;;5093427;28;20600;-70
2022/05/04 03:46:40;;;;;;;2.00;0.50;;;28.00;90.50;;;;;;5087501;28;20028;-70
2022/05/04 03:49:08;;;;;;;1.80;0.38;;;27.80;87.30;;;;;;5081391;28;20090;-71
2022/05/04 03:51:36;;;;;;;2.70;0.50;;;27.60;88.70;;;;;;5083777;28;20028;-71
2022/05/04 03:54:04;;;;;;;0.55;0.30;;;27.60;89.30;;;;;;5088434;28;20139;-73
2022/05/04 03:56:31;;;;;;;2.40;0.35;;;27.70;89.50;;;;;;5090171;28;20142;-72
2022/05/04 03:58:59;;;;;;;1.65;0.30;;;28.00;90.10;;;;;;5086922;28;20012;-72
2022/05/04 04:01:26;;;;;;;0.73;0.50;;;28.10;89.80;;;;;;5064057;28;20435;-72
2022/05/04 04:03:54;;;;;;;0.90;0.40;;;28.20;89.20;;;;;;5076761;28;20778;-72
2022/05/04 04:06:21;;;;;;;2.63;0.50;;;28.10;89.30;;;;;;5086953;28;20106;-72
2022/05/04 04:08:50;;;;;;;1.67;0.55;;;27.90;88.00;;;;;;5089770;28;20028;-71
2022/05/04 04:11:19;;;;;;;0.82;0.32;;;27.50;90.10;;;;;;5081591;28;20024;-72
2022/05/04 04:13:46;;;;;;;1.42;0.30;;;27.30;90.30;;;;;;5088560;28;20130;-71
2022/05/04 04:16:14;;;;;;;1.23;0.40;;;27.30;90.30;;;;;;5076838;28;20025;-71
2022/05/04 04:18:41;;;;;;;1.58;0.32;;;27.40;90.20;;;;;;5080935;28;20161;-71
2022/05/04 04:23:54;;;;;;;0.98;0.32;;;27.40;90.40;;;;;;5086105;28;20070;-71
2022/05/04 04:26:22;;;;;;;1.35;0.40;;;27.30;90.10;;;;;;5088533;28;20035;-72
2022/05/04 04:28:49;;;;;;;1.70;0.40;;;27.10;90.20;;;;;;5091397;28;20062;-73
2022/05/04 04:31:18;;;;;;;1.23;0.47;;;26.80;90.70;;;;;;5081510;28;20028;-77
2022/05/04 04:33:45;;;;;;;0.98;0.45;;;26.70;90.90;;;;;;5087617;28;20023;-75
2022/05/04 04:36:12;;;;;;;2.92;0.35;;;26.70;91.00;;;;;;5087166;28;20115;-73
2022/05/04 04:38:40;;;;;;;5.70;0.85;;;26.80;91.10;;;;;;5085362;28;20055;-75
2022/05/04 04:41:07;;;;;;;1.95;0.30;;;26.80;90.90;;;;;;5081679;28;20024;-72
2022/05/04 04:43:34;;;;;;;0.43;0.30;;;26.90;90.80;;;;;;5085019;28;20036;-73
2022/05/04 04:46:02;;;;;;;4.63;0.43;;;27.00;90.70;;;;;;5072962;28;20028;-73
2022/05/04 04:48:29;;;;;;;3.72;0.50;;;26.90;91.00;;;;;;5082930;28;20048;-74
2022/05/04 04:50:56;;;;;;;0.45;0.35;;;26.90;91.20;;;;;;5075702;28;20104;-75
2022/05/04 04:53:24;;;;;;;0.82;0.40;;;26.70;91.70;;;;;;5091456;28;20020;-75
2022/05/04 04:55:51;;;;;;;0.80;0.30;;;26.50;91.40;;;;;;5089722;28;20103;-76
2022/05/04 04:58:18;;;;;;;0.85;0.30;;;26.40;91.10;;;;;;5089928;28;20108;-75
2022/05/04 05:00:46;;;;;;;2.50;0.68;;;26.20;91.40;;;;;;5089171;28;20463;-73
2022/05/04 05:03:13;;;;;;;1.35;0.35;;;26.10;91.50;;;;;;5088147;28;20100;-73
2022/05/04 05:05:44;;;;;;;1.35;0.40;;;26.00;91.60;;;;;;5089561;28;20024;-76
2022/05/04 05:08:12;;;;;;;2.50;1.08;;;26.00;91.20;;;;;;5095518;28;20046;-72
2022/05/04 05:10:40;;;;;;;1.13;0.40;;;26.00;91.80;;;;;;5087643;28;20012;-73
2022/05/04 05:13:08;;;;;;;0.80;0.52;;;26.10;91.60;;;;;;5085662;28;20043;-74
2022/05/04 05:18:24;;;;;;;1.42;0.40;;;26.00;91.60;;;;;;5094690;28;20062;-72
2022/05/04 05:20:51;;;;;;;2.05;0.45;;;26.00;91.70;;;;;;5086409;28;20104;-71
2022/05/04 05:23:20;;;;;;;0.57;0.20;;;26.00;92.00;;;;;;5087924;28;20066;-72
2022/05/04 05:25:47;;;;;;;0.20;0.20;;;25.90;91.80;;;;;;5091626;28;20028;-73
2022/05/04 05:28:15;;;;;;;1.63;0.50;;;25.90;91.90;;;;;;5090876;28;20028;-73
2022/05/04 05:30:42;;;;;;;1.00;0.40;;;26.00;91.70;;;;;;5088292;28;20112;-74
2022/05/04 05:33:10;;;;;;;1.10;0.40;;;26.10;92.20;;;;;;5093987;28;20066;-73
2022/05/04 05:35:38;;;;;;;0.60;0.35;;;26.20;91.40;;;;;;5087582;28;20081;-73
2022/05/04 05:38:05;;;;;;;2.33;0.73;;;26.30;91.20;;;;;;5094836;28;20054;-74
2022/05/04 05:40:33;;;;;;;1.52;0.43;;;26.50;91.90;;;;;;5092833;28;20449;-72
2022/05/04 05:43:00;;;;;;;2.20;0.40;;;26.60;91.20;;;;;;5099958;28;20144;-71
2022/05/04 05:45:27;;;;;;;2.47;0.50;;;26.60;91.00;;;;;;5079148;28;20035;-73
2022/05/04 05:47:55;;;;;;;1.30;0.25;;;26.60;91.20;;;;;;5092819;28;20065;-71
2022/05/04 05:50:22;;;;;;;0.45;0.30;;;26.60;90.70;;;;;;5092171;28;20032;-72
2022/05/04 05:52:49;;;;;;;0.45;0.40;;;26.70;90.60;;;;;;5088352;28;20159;-71
2022/05/04 05:55:16;;;;;;;1.05;0.30;;;26.60;90.60;;;;;;5074122;28;20032;-72
2022/05/04 05:57:44;;;;;;;2.15;0.50;;;26.40;90.90;;;;;;5076692;28;20112;-72
2022/05/04 06:00:13;;;;;;;0.85;0.60;;;26.10;90.80;;;;;;5076447;28;20465;-71
2022/05/04 06:02:40;;;;;;;1.88;0.98;;;26.00;91.70;;;;;;5074196;28;20028;-73
2022/05/04 06:05:08;;;;;;;0.65;0.40;;;25.80;92.00;;;;;;5080836;28;20036;-72
2022/05/04 06:07:35;;;;;;;2.35;0.38;;;25.60;91.60;;;;;;5080145;28;20035;-73
2022/05/04 06:10:03;;;;;;;1.23;0.50;;;25.50;91.60;;;;;;5083999;28;20090;-71
2022/05/04 06:12:30;;;;;;;3.65;0.40;;;25.50;91.80;;;;;;5084078;28;20443;-72
2022/05/04 06:14:57;;;;;;;0.80;0.47;;;25.60;91.80;;;;;;5087904;28;20032;-71
2022/05/04 06:17:25;;;;;;;1.77;0.43;;;25.80;91.70;;;;;;5080041;28;20020;-71
2022/05/04 06:19:52;;;;;;;0.95;0.22;;;25.90;91.50;;;;;;5075011;28;20068;-72
2022/05/04 06:22:19;;;;;;;0.50;0.40;;;26.00;91.70;;;;;;5067831;28;20472;-72
2022/05/04 06:24:47;;;;;;;1.27;0.40;;;26.10;91.80;;;;;;5084132;28;20024;-73
2022/05/04 06:27:14;;;;;;;2.10;0.63;;;26.00;92.10;;;;;;5079120;28;20020;-73
2022/05/04 06:35:13;;;;;;;0.68;0.40;;;25.50;92.50;;;;;;5080792;28;20133;-72
2022/05/04 06:37:40;;;;;;;2.53;0.43;;;25.30;93.80;;;;;;5079783;28;20012;-73
2022/05/04 06:40:09;;;;;;;3.78;0.55;;;25.20;93.90;;;;;;5085983;28;20028;-72
2022/05/04 06:42:36;;;;;;;2.58;0.65;;;25.10;94.30;;;;;;5077386;28;20044;-72
2022/05/04 06:45:04;;;;;;;0.50;0.35;;;24.90;94.00;;;;;;5098987;28;20052;-72
2022/05/04 06:47:31;;;;;;;1.65;0.65;;;24.80;94.20;;;;;;5082420;28;20048;-72
2022/05/04 06:49:59;;;;;;;2.75;0.75;;;24.70;94.60;;;;;;5086607;28;20082;-73
2022/05/04 06:52:27;;;;;;;0.90;0.50;;;24.60;95.00;;;;;;5083760;28;20035;-72
2022/05/04 06:54:54;;;;;;;2.00;0.60;;;24.50;95.00;;;;;;5091012;28;20474;-74
2022/05/04 06:57:21;;;;;;;1.45;0.43;;;24.40;94.90;;;;;;5086079;28;20220;-73
2022/05/04 06:59:49;;;;;;;1.60;0.40;;;24.20;95.00;;;;;;5089684;28;20020;-72
2022/05/04 07:02:17;;;;;;;1.02;0.30;;;24.10;95.00;;;;;;5085261;28;20028;-72
2022/05/04 07:04:44;;;;;;;1.50;0.40;;;24.00;95.10;;;;;;5089920;28;20389;-72
2022/05/04 07:07:12;;;;;;;1.58;0.50;;;23.90;95.40;;;;;;5088633;28;20108;-73
2022/05/04 07:09:39;;;;;;;1.08;0.40;;;23.80;95.50;;;;;;5084315;28;20036;-73
2022/05/04 07:12:07;;;;;;;0.32;0.30;;;23.70;95.70;;;;;;5077599;28;20407;-71
2022/05/04 07:14:35;;;;;;;1.48;0.40;;;23.60;96.00;;;;;;5073757;28;20035;-72
2022/05/04 07:17:02;;;;;;;1.33;0.77;;;23.50;96.20;;;;;;5070330;28;20397;-71
2022/05/04 07:19:30;;;;;;;1.60;0.50;;;23.40;96.70;;;;;;5071749;28;20028;-72
2022/05/04 07:21:57;;;;;;;1.80;0.50;;;23.30;97.10;;;;;;5078432;28;20062;-73
2022/05/04 07:24:24;;;;;;;1.02;0.60;;;23.30;97.00;;;;;;5088176;28;20024;-73
2022/05/04 07:26:52;;;;;;;1.75;0.50;;;23.30;96.80;;;;;;5063747;28;20032;-73
2022/05/04 07:29:19;;;;;;;0.80;0.50;;;23.20;97.00;;;;;;5068457;28;20070;-71
2022/05/04 07:31:47;;;;;;;1.42;0.60;;;23.10;97.50;;;;;;5074396;28;20025;-71
2022/05/04 07:34:16;;;;;;;1.60;0.52;;;23.00;97.70;;;;;;5069015;28;20088;-73
2022/05/04 07:36:45;;;;;;;2.25;0.60;;;22.90;98.10;;;;;;5075143;28;20036;-71
2022/05/04 07:44:43;;;;;;;2.35;1.33;;;22.60;98.60;;;;;;5069883;28;19923;-73
2022/05/04 07:47:10;;;;;;;4.57;1.45;;;22.50;98.80;;;;;;5090831;28;20541;-71
2022/05/04 07:49:38;;;;;;;2.72;1.35;;;22.50;99.00;;;;;;5082285;28;20067;-72
2022/05/04 07:52:06;;;;;;;3.42;1.42;;;22.40;99.40;;;;;;5073859;28;20036;-70
2022/05/04 07:54:33;;;;;;;2.90;1.00;;;22.40;99.20;;;;;;5090751;28;20035;-73
2022/05/04 07:57:00;;;;;;;4.60;1.05;;;22.40;99.00;;;;;;5109671;28;20028;-72
2022/05/04 07:59:28;;;;;;;2.90;1.00;;;22.50;99.20;;;;;;5076935;28;20028;-73
2022/05/04 08:04:41;;;;;;;3.90;2.10;;;22.40;99.40;;;;;;5080102;28;20031;-73
2022/05/04 08:07:08;;;;;;;3.88;0.95;;;22.40;99.20;;;;;;5059448;28;20032;-74
2022/05/04 08:09:36;;;;;;;4.78;1.00;;;22.30;98.80;;;;;;5094954;28;20429;-73
2022/05/04 08:12:06;;;;;;;1.85;0.73;;;22.20;99.00;;;;;;5092482;28;20039;-73
2022/05/04 08:14:34;;;;;;;1.65;1.05;;;22.20;98.90;;;;;;5089976;28;20032;-73
2022/05/04 08:17:01;;;;;;;1.75;0.80;;;22.20;99.20;;;;;;5090233;28;20513;-74
2022/05/04 08:19:29;;;;;;;2.47;0.80;;;22.20;99.80;;;;;;5089045;28;20114;-74
2022/05/04 08:21:56;;;;;;;2.65;0.75;;;22.10;99.90;;;;;;5086302;28;20027;-73
2022/05/04 08:24:24;;;;;;;2.45;0.80;;;22.10;99.90;;;;;;5091168;28;20024;-74
2022/05/04 08:26:52;;;;;;;4.72;1.23;;;22.00;99.90;;;;;;5089086;28;20030;-73
2022/05/04 08:29:19;;;;;;;3.28;1.10;;;22.00;99.90;;;;;;5092160;28;20038;-73
2022/05/04 08:31:47;;;;;;;2.05;0.90;;;21.90;99.90;;;;;;5076471;28;20060;-73
2022/05/04 08:34:14;;;;;;;2.55;1.65;;;21.90;99.90;;;;;;5094881;28;20028;-72
2022/05/04 08:36:41;;;;;;;8.38;2.58;;;21.80;99.90;;;;;;5096257;28;20027;-72
2022/05/04 08:39:15;;;;;;;5.65;2.58;;;21.80;99.90;;;;;;5091730;28;20026;-74
2022/05/04 08:41:44;;;;;;;8.77;2.65;;;21.80;99.90;;;;;;5063352;28;20036;-73
2022/05/04 08:44:14;;;;;;;2.28;1.33;;;21.60;99.90;;;;;;5092577;28;20043;-72
2022/05/04 08:46:43;;;;;;;7.57;1.98;;;21.60;99.90;;;;;;5077525;28;20051;-73
2022/05/04 08:49:12;;;;;;;4.90;1.85;;;21.50;99.90;;;;;;5090793;28;20052;-75
2022/05/04 08:51:41;;;;;;;2.72;1.52;;;21.40;99.90;;;;;;5089417;28;20466;-69
2022/05/04 08:54:09;;;;;;;4.32;1.75;;;21.40;99.90;;;;;;5085214;28;20114;-73
2022/05/04 08:56:37;;;;;;;6.03;2.25;;;21.40;99.90;;;;;;5076516;28;20386;-73
2022/05/04 08:59:06;;;;;;;3.92;1.90;;;21.40;99.90;;;;;;5088333;28;20028;-73
2022/05/04 09:01:37;;;;;;;5.40;1.73;;;21.30;99.90;;;;;;5092464;28;20020;-73
2022/05/04 09:04:06;;;;;;;3.17;1.85;;;21.30;99.90;;;;;;5090460;28;20078;-72
2022/05/04 09:06:38;;;;;;;3.22;1.40;;;21.30;99.90;;;;;;5090924;28;20046;-73
2022/05/04 09:09:13;;;;;;;6.88;1.73;;;21.20;99.90;;;;;;5089433;28;20073;-73
2022/05/04 09:11:43;;;;;;;2.97;1.20;;;21.20;99.90;;;;;;5090256;28;20097;-73
2022/05/04 09:14:12;;;;;;;3.83;1.65;;;21.20;99.90;;;;;;5081233;28;20033;-74
2022/05/04 09:16:41;;;;;;;3.40;1.17;;;21.10;99.90;;;;;;5078945;28;20034;-74
2022/05/04 09:19:17;;;;;;;3.20;1.50;;;21.10;99.90;;;;;;5088527;28;20431;-73
2022/05/04 09:21:48;;;;;;;4.78;1.13;;;21.00;99.90;;;;;;5091648;28;20128;-74
2022/05/04 09:24:35;;;;;;;9.38;2.42;;;20.90;99.90;;;;;;5095815;28;20040;-74
2022/05/04 09:27:06;;;;;;;4.35;1.75;;;20.90;99.90;;;;;;5088818;28;20028;-74
2022/05/04 09:29:39;;;;;;;4.97;1.65;;;20.90;99.90;;;;;;5090724;28;20031;-73
2022/05/04 09:32:16;;;;;;;5.80;1.45;;;20.90;99.90;;;;;;5083785;28;20032;-72
2022/05/04 09:34:46;;;;;;;4.57;1.40;;;20.80;99.90;;;;;;5087349;28;20031;-73
2022/05/04 09:45:52;;;;;;;9.80;2.03;;;20.70;99.90;;;;;;5091830;28;20078;-73
2022/05/04 09:48:32;;;;;;;2.40;1.30;;;20.70;99.90;;;;;;5081851;28;20048;-73
2022/05/04 09:51:17;;;;;;;2.22;1.48;;;20.70;99.90;;;;;;5072089;28;20520;-73
2022/05/04 09:53:45;;;;;;;3.93;2.30;;;20.70;99.90;;;;;;5095855;28;20081;-74
2022/05/04 09:56:12;;;;;;;4.13;1.50;;;20.80;99.90;;;;;;5077713;28;20028;-74
2022/05/04 09:58:41;;;;;;;1.90;1.25;;;20.80;99.90;;;;;;5084894;28;20432;-74
2022/05/04 10:01:09;;;;;;;3.22;1.60;;;20.80;99.90;;;;;;5082879;28;20112;-74
2022/05/04 10:03:37;;;;;;;5.88;1.80;;;20.70;99.90;;;;;;5090307;28;20091;-74
2022/05/04 10:06:05;;;;;;;4.03;1.70;;;20.70;99.90;;;;;;5087897;28;20078;-73
2022/05/04 10:08:32;;;;;;;5.50;1.80;;;20.70;99.90;;;;;;5088249;28;20548;-72
2022/05/04 10:11:00;;;;;;;5.35;4.32;;;20.60;99.90;;;;;;5080647;28;20024;-72
2022/05/04 10:13:28;;;;;;;6.15;2.83;;;20.60;99.90;;;;;;5088234;28;20031;-73
2022/05/04 10:15:57;;;;;;;7.28;3.78;;;20.50;99.90;;;;;;5090683;28;20064;-74
2022/05/04 10:18:28;;;;;;;5.55;3.08;;;20.50;99.90;;;;;;5089657;28;20052;-73
2022/05/04 10:21:09;;;;;;;8.90;3.55;;;20.50;99.90;;;;;;5088407;28;20070;-73
2022/05/04 10:23:44;;;;;;;5.85;2.55;;;20.50;99.90;;;;;;5085117;28;20039;-72
2022/05/04 10:26:14;;;;;;;8.85;2.20;;;20.60;99.90;;;;;;5082362;28;20031;-73
2022/05/04 10:30:30;;;;;;;5.90;2.28;;;20.50;99.90;;;;;;5087966;28;20378;-74
2022/05/04 10:31:35;;;;;;;4.07;2.13;;;20.50;99.90;;;;;;5090536;28;20032;-74
2022/05/04 10:34:08;;;;;;;5.30;1.90;;;20.50;99.90;;;;;;5090790;28;20664;-73
2022/05/04 10:36:38;;;;;;;5.38;2.03;;;20.50;99.90;;;;;;5089132;28;20031;-74
2022/05/04 10:39:06;;;;;;;5.55;2.63;;;20.50;99.90;;;;;;5086766;28;20024;-73
2022/05/04 10:41:42;;;;;;;4.07;1.92;;;20.40;99.90;;;;;;5084332;28;20032;-73
2022/05/04 10:44:12;;;;;;;;;;;20.40;99.90;;;;;;5090964;28;20457;-74
2022/05/04 10:46:41;;;;;;;4.07;2.20;;;20.40;99.90;;;;;;5089498;28;19954;-75
2022/05/04 10:49:13;;;;;;;4.43;2.25;;;20.40;99.90;;;;;;5093083;28;20048;-73
2022/05/04 10:51:42;;;;;;;4.90;1.38;;;20.40;99.90;;;;;;5092622;28;20109;-74
2022/05/04 10:54:17;;;;;;;4.53;1.50;;;20.40;99.90;;;;;;5089851;28;20036;-73
2022/05/04 10:56:47;;;;;;;5.03;2.70;;;20.40;99.90;;;;;;5086059;28;20024;-73
2022/05/04 10:59:36;;;;;;;7.60;1.70;;;20.30;99.90;;;;;;5089767;28;20272;-74
2022/05/04 11:02:09;;;;;;;5.68;2.22;;;20.30;99.90;;;;;;5078566;28;20424;-74
2022/05/04 11:04:37;;;;;;;2.75;1.42;;;20.30;99.90;;;;;;5093434;28;20035;-74
2022/05/04 11:07:06;;;;;;;4.53;2.80;;;20.40;99.90;;;;;;5077073;28;20123;-73
2022/05/04 11:09:38;;;;;;;3.15;1.92;;;20.30;99.90;;;;;;5095812;28;20028;-73
2022/05/04 11:12:08;;;;;;;6.10;2.17;;;20.30;99.90;;;;;;5108697;28;20042;-73
2022/05/04 11:14:36;;;;;;;4.03;2.58;;;20.30;99.90;;;;;;5110472;28;20470;-73
2022/05/04 11:17:13;;;;;;;4.68;2.42;;;20.20;99.90;;;;;;5095694;28;20119;-73
2022/05/04 11:19:45;;;;;;;9.85;5.05;;;20.10;99.90;;;;;;5070539;28;20356;-74
2022/05/04 11:22:14;;;;;;;4.82;3.33;;;20.00;99.90;;;;;;5071034;28;20036;-74
2022/05/04 11:24:42;;;;;;;14.10;3.65;;;19.90;99.90;;;;;;5078908;28;20028;-74
2022/05/04 11:27:11;;;;;;;6.90;3.15;;;19.80;99.90;;;;;;5087238;28;20047;-74
2022/05/04 11:29:38;;;;;;;4.18;2.50;;;19.80;99.90;;;;;;5086204;28;20034;-74
2022/05/04 11:32:06;;;;;;;4.55;2.55;;;19.80;99.90;;;;;;5088640;28;20172;-74
2022/05/04 11:34:36;;;;;;;4.10;2.38;;;19.80;99.90;;;;;;5084128;28;20502;-73
2022/05/04 11:37:05;;;;;;;5.75;3.25;;;19.80;99.90;;;;;;5086308;28;20386;-73
2022/05/04 11:39:33;;;;;;;5.20;2.17;;;19.80;99.90;;;;;;5083032;28;20043;-73
2022/05/04 11:42:02;;;;;;;3.08;1.75;;;19.80;99.90;;;;;;5076547;28;20039;-73
2022/05/04 11:44:31;;;;;;;7.82;2.60;;;19.80;99.90;;;;;;5095625;28;20039;-73
2022/05/04 11:47:01;;;;;;;9.68;1.90;;;19.80;99.90;;;;;;5089582;28;20052;-74
2022/05/04 11:49:37;;;;;;;5.00;2.10;;;19.80;99.90;;;;;;5091161;28;20134;-75
2022/05/04 11:52:05;;;;;;;4.93;2.85;;;19.80;99.90;;;;;;5083642;28;20537;-75
2022/05/04 11:54:33;;;;;;;7.03;2.35;;;19.80;99.90;;;;;;5086981;28;20056;-74
2022/05/04 11:57:00;;;;;;;7.60;2.53;;;19.70;99.90;;;;;;5072121;28;20056;-74
2022/05/04 11:59:34;;;;;;;3.55;2.13;;;19.80;99.90;;;;;;5079868;28;20059;-75
2022/05/04 12:02:02;;;;;;;4.57;2.40;;;19.80;99.90;;;;;;5087695;28;20028;-73
2022/05/04 12:04:29;;;;;;;5.80;3.03;;;19.80;99.90;;;;;;5080147;28;20509;-74
2022/05/04 12:07:00;;;;;;;6.53;3.03;;;19.80;99.90;;;;;;5090402;28;20024;-73
2022/05/04 12:09:27;;;;;;;3.53;2.30;;;19.80;99.90;;;;;;5092522;28;20024;-74
2022/05/04 12:11:55;;;;;;;4.35;2.15;;;19.70;99.90;;;;;;5085635;28;20107;-73
2022/05/04 12:14:22;;;;;;;5.85;2.40;;;19.60;99.90;;;;;;5089924;28;20028;-74
2022/05/04 12:16:50;;;;;;;10.50;5.05;;;19.60;99.90;;;;;;5084786;28;20047;-72
2022/05/04 12:19:19;;;;;;;4.28;3.15;;;19.60;99.90;;;;;;5106754;28;20051;-73
2022/05/04 12:21:47;;;;;;;5.35;2.03;;;19.50;99.90;;;;;;5091663;28;20038;-74
2022/05/04 12:24:14;;;;;;;6.40;2.47;;;19.50;99.90;;;;;;5102410;28;20093;-73
2022/05/04 12:26:42;;;;;;;5.40;2.47;;;19.40;99.90;;;;;;5090358;28;20053;-75
2022/05/04 12:34:44;;;;;;;4.47;2.40;;;19.20;99.90;;;;;;5090299;28;20518;-73
2022/05/04 12:37:14;;;;;;;4.25;2.08;;;19.20;99.90;;;;;;5092267;28;20090;-73
2022/05/04 12:39:44;;;;;;;8.73;3.42;;;19.20;99.90;;;;;;5073514;28;20017;-74
2022/05/04 12:42:16;;;;;;;4.10;1.90;;;19.20;99.90;;;;;;5075709;28;20044;-73
2022/05/04 12:44:50;;;;;;;7.72;2.30;;;19.20;99.90;;;;;;5091946;28;20062;-73
2022/05/04 12:47:18;;;;;;;2.95;1.88;;;19.10;99.90;;;;;;5090735;28;20557;-73
2022/05/04 12:49:47;;;;;;;3.72;2.45;;;19.10;99.90;;;;;;5090991;28;20093;-73
2022/05/04 12:52:15;;;;;;;5.47;2.40;;;19.10;99.90;;;;;;5084802;28;20028;-73
2022/05/04 12:54:43;;;;;;;3.95;2.00;;;19.10;99.90;;;;;;5094812;28;20564;-72
2022/05/04 12:57:10;;;;;;;6.55;2.25;;;19.10;99.90;;;;;;5080845;28;20032;-74
2022/05/04 12:59:38;;;;;;;5.22;2.55;;;19.10;99.90;;;;;;5087404;28;20027;-73
2022/05/04 13:02:06;;;;;;;6.03;2.83;;;19.10;99.90;;;;;;5073374;28;20028;-74
2022/05/04 13:04:33;;;;;;;3.85;2.17;;;19.00;99.90;;;;;;5095083;28;20024;-73
2022/05/04 13:07:00;;;;;;;7.30;2.38;;;19.10;99.90;;;;;;5106048;28;20031;-73
2022/05/04 13:09:28;;;;;;;5.43;2.67;;;19.10;99.90;;;;;;5086696;28;20035;-73
2022/05/04 13:11:56;;;;;;;4.78;2.35;;;19.00;99.90;;;;;;5081253;28;20039;-73
2022/05/04 13:14:23;;;;;;;2.58;1.90;;;19.00;99.90;;;;;;5083857;28;20032;-74
2022/05/04 13:16:51;;;;;;;3.38;2.85;;;19.00;99.90;;;;;;5090654;28;20553;-73
2022/05/04 13:19:19;;;;;;;3.30;2.40;;;19.00;99.90;;;;;;5094922;28;20406;-73
2022/05/04 13:21:46;;;;;;;2.95;2.40;;;19.10;99.90;;;;;;5079802;28;20028;-73
2022/05/04 13:24:14;;;;;;;4.00;2.25;;;19.00;99.90;;;;;;5076244;28;20051;-74
2022/05/04 13:26:41;;;;;;;8.75;3.65;;;19.00;99.90;;;;;;5087071;28;20101;-74
2022/05/04 13:29:09;;;;;;;4.43;3.15;;;19.00;99.90;;;;;;5100123;28;20489;-73
2022/05/04 13:31:37;;;;;;;6.05;2.08;;;19.00;99.90;;;;;;5075942;28;20035;-73
2022/05/04 13:34:04;;;;;;;6.78;2.65;;;19.00;99.90;;;;;;5076185;28;20031;-73
2022/05/04 13:36:31;;;;;;;3.90;2.15;;;18.90;99.90;;;;;;5074899;28;20398;-74
2022/05/04 13:38:59;;;;;;;8.32;2.33;;;18.90;99.90;;;;;;5101771;28;20500;-74